sensor_id;sensor_type;location;lat;lon;timestamp;P1;durP1;ratioP1;P2;durP2;ratioP2
826;SDS011;395;48.132;11.608;2022-07-21T00:00:43;5.23;;;4.50;;
826;SDS011;395;48.132;11.608;2022-07-21T00:03:08;4.50;;;3.97;;
826;SDS011;395;48.132;11.608;2022-07-21T00:05:34;4.60;;;4.20;;
826;SDS011;395;48.132;11.608;2022-07-21T00:08:00;4.33;;;3.93;;
826;SDS011;395;48.132;11.608;2022-07-21T00:10:26;5.30;;;4.87;;
826;SDS011;395;48.132;11.608;2022-07-21T00:12:53;4.43;;;4.03;;
826;SDS011;395;48.132;11.608;2022-07-21T00:15:20;6.03;;;4.40;;
826;SDS011;395;48.132;11.608;2022-07-21T00:17:47;4.80;;;4.20;;
826;SDS011;395;48.132;11.608;2022-07-21T00:20:13;6.70;;;4.37;;
826;SDS011;395;48.132;11.608;2022-07-21T00:22:41;4.70;;;4.20;;
826;SDS011;395;48.132;11.608;2022-07-21T00:25:08;4.00;;;3.70;;
826;SDS011;395;48.132;11.608;2022-07-21T00:27:35;8.03;;;4.17;;
826;SDS011;395;48.132;11.608;2022-07-21T00:30:01;5.10;;;4.70;;
826;SDS011;395;48.132;11.608;2022-07-21T00:32:29;4.00;;;3.70;;
826;SDS011;395;48.132;11.608;2022-07-21T00:34:54;5.20;;;4.80;;
826;SDS011;395;48.132;11.608;2022-07-21T00:37:20;5.37;;;4.47;;
826;SDS011;395;48.132;11.608;2022-07-21T00:39:48;5.50;;;5.00;;
826;SDS011;395;48.132;11.608;2022-07-21T00:42:22;5.80;;;5.20;;
826;SDS011;395;48.132;11.608;2022-07-21T00:44:48;4.63;;;4.23;;
826;SDS011;395;48.132;11.608;2022-07-21T00:47:14;5.20;;;4.70;;
826;SDS011;395;48.132;11.608;2022-07-21T00:49:40;5.80;;;5.20;;
826;SDS011;395;48.132;11.608;2022-07-21T00:52:07;5.87;;;5.27;;
826;SDS011;395;48.132;11.608;2022-07-21T00:54:32;5.93;;;5.33;;
826;SDS011;395;48.132;11.608;2022-07-21T00:56:59;5.20;;;4.70;;
826;SDS011;395;48.132;11.608;2022-07-21T00:59:24;8.00;;;6.40;;
826;SDS011;395;48.132;11.608;2022-07-21T01:01:51;7.57;;;5.80;;
826;SDS011;395;48.132;11.608;2022-07-21T01:04:16;5.80;;;5.10;;
826;SDS011;395;48.132;11.608;2022-07-21T01:06:42;7.33;;;6.33;;
826;SDS011;395;48.132;11.608;2022-07-21T01:09:08;5.67;;;5.17;;
826;SDS011;395;48.132;11.608;2022-07-21T01:11:35;6.33;;;5.67;;
826;SDS011;395;48.132;11.608;2022-07-21T01:14:02;5.80;;;5.30;;
826;SDS011;395;48.132;11.608;2022-07-21T01:16:28;6.70;;;6.10;;
826;SDS011;395;48.132;11.608;2022-07-21T01:18:53;6.37;;;5.70;;
826;SDS011;395;48.132;11.608;2022-07-21T01:23:57;5.90;;;5.40;;
826;SDS011;395;48.132;11.608;2022-07-21T01:26:23;5.67;;;5.17;;
826;SDS011;395;48.132;11.608;2022-07-21T01:28:49;6.57;;;5.97;;
826;SDS011;395;48.132;11.608;2022-07-21T01:31:15;6.80;;;5.37;;
826;SDS011;395;48.132;11.608;2022-07-21T01:33:41;5.20;;;4.70;;
826;SDS011;395;48.132;11.608;2022-07-21T01:36:07;6.63;;;6.03;;
826;SDS011;395;48.132;11.608;2022-07-21T01:38:32;6.63;;;6.13;;
826;SDS011;395;48.132;11.608;2022-07-21T01:41:17;7.80;;;5.63;;
826;SDS011;395;48.132;11.608;2022-07-21T01:43:55;6.00;;;5.37;;
826;SDS011;395;48.132;11.608;2022-07-21T01:46:22;5.83;;;5.30;;
826;SDS011;395;48.132;11.608;2022-07-21T01:48:48;5.80;;;5.30;;
826;SDS011;395;48.132;11.608;2022-07-21T01:51:13;5.57;;;5.00;;
826;SDS011;395;48.132;11.608;2022-07-21T01:53:39;6.50;;;5.90;;
826;SDS011;395;48.132;11.608;2022-07-21T01:56:05;5.73;;;5.33;;
826;SDS011;395;48.132;11.608;2022-07-21T01:58:32;6.07;;;5.53;;
826;SDS011;395;48.132;11.608;2022-07-21T02:00:58;6.00;;;5.40;;
826;SDS011;395;48.132;11.608;2022-07-21T02:03:24;6.97;;;6.30;;
826;SDS011;395;48.132;11.608;2022-07-21T02:05:49;6.23;;;5.50;;
826;SDS011;395;48.132;11.608;2022-07-21T02:08:15;6.77;;;5.50;;
826;SDS011;395;48.132;11.608;2022-07-21T02:10:41;6.37;;;5.87;;
826;SDS011;395;48.132;11.608;2022-07-21T02:13:06;6.13;;;5.63;;
826;SDS011;395;48.132;11.608;2022-07-21T02:15:32;5.80;;;5.30;;
826;SDS011;395;48.132;11.608;2022-07-21T02:17:58;5.80;;;5.30;;
826;SDS011;395;48.132;11.608;2022-07-21T02:20:24;7.60;;;6.80;;
826;SDS011;395;48.132;11.608;2022-07-21T02:22:51;7.40;;;6.73;;
826;SDS011;395;48.132;11.608;2022-07-21T02:25:17;7.93;;;7.20;;
826;SDS011;395;48.132;11.608;2022-07-21T02:27:44;6.47;;;5.90;;
826;SDS011;395;48.132;11.608;2022-07-21T02:30:11;7.90;;;6.30;;
826;SDS011;395;48.132;11.608;2022-07-21T02:32:38;8.50;;;6.67;;
826;SDS011;395;48.132;11.608;2022-07-21T02:35:04;8.50;;;7.60;;
826;SDS011;395;48.132;11.608;2022-07-21T02:37:31;7.70;;;6.93;;
826;SDS011;395;48.132;11.608;2022-07-21T02:39:57;6.07;;;5.57;;
826;SDS011;395;48.132;11.608;2022-07-21T02:42:23;6.60;;;6.00;;
826;SDS011;395;48.132;11.608;2022-07-21T02:44:48;7.67;;;6.97;;
826;SDS011;395;48.132;11.608;2022-07-21T02:47:14;8.20;;;7.47;;
826;SDS011;395;48.132;11.608;2022-07-21T02:49:40;6.90;;;6.30;;
826;SDS011;395;48.132;11.608;2022-07-21T02:52:06;9.03;;;7.17;;
826;SDS011;395;48.132;11.608;2022-07-21T02:54:31;7.63;;;6.87;;
826;SDS011;395;48.132;11.608;2022-07-21T02:56:57;7.50;;;6.80;;
826;SDS011;395;48.132;11.608;2022-07-21T02:59:23;8.50;;;7.80;;
826;SDS011;395;48.132;11.608;2022-07-21T03:01:49;9.10;;;7.70;;
826;SDS011;395;48.132;11.608;2022-07-21T03:04:14;9.47;;;7.83;;
826;SDS011;395;48.132;11.608;2022-07-21T03:06:40;8.10;;;7.47;;
826;SDS011;395;48.132;11.608;2022-07-21T03:09:07;8.63;;;7.73;;
826;SDS011;395;48.132;11.608;2022-07-21T03:11:34;7.10;;;6.40;;
826;SDS011;395;48.132;11.608;2022-07-21T03:13:59;7.80;;;7.00;;
826;SDS011;395;48.132;11.608;2022-07-21T03:16:25;7.73;;;7.13;;
826;SDS011;395;48.132;11.608;2022-07-21T03:18:51;8.87;;;8.10;;
826;SDS011;395;48.132;11.608;2022-07-21T03:21:17;10.07;;;9.07;;
826;SDS011;395;48.132;11.608;2022-07-21T03:23:43;8.83;;;7.97;;
826;SDS011;395;48.132;11.608;2022-07-21T03:26:13;8.60;;;7.90;;
826;SDS011;395;48.132;11.608;2022-07-21T03:28:40;8.60;;;7.80;;
826;SDS011;395;48.132;11.608;2022-07-21T03:31:07;9.40;;;8.60;;
826;SDS011;395;48.132;11.608;2022-07-21T03:33:33;9.23;;;8.33;;
826;SDS011;395;48.132;11.608;2022-07-21T03:35:59;9.00;;;8.10;;
826;SDS011;395;48.132;11.608;2022-07-21T03:38:25;9.10;;;8.20;;
826;SDS011;395;48.132;11.608;2022-07-21T03:40:51;8.37;;;7.67;;
826;SDS011;395;48.132;11.608;2022-07-21T03:43:17;8.80;;;8.00;;
826;SDS011;395;48.132;11.608;2022-07-21T03:45:43;10.10;;;9.13;;
826;SDS011;395;48.132;11.608;2022-07-21T03:48:08;10.60;;;9.70;;
826;SDS011;395;48.132;11.608;2022-07-21T03:50:35;9.97;;;9.07;;
826;SDS011;395;48.132;11.608;2022-07-21T03:53:03;10.90;;;9.93;;
826;SDS011;395;48.132;11.608;2022-07-21T03:55:29;10.60;;;9.47;;
826;SDS011;395;48.132;11.608;2022-07-21T03:57:57;10.57;;;9.67;;
826;SDS011;395;48.132;11.608;2022-07-21T04:00:25;11.73;;;10.63;;
826;SDS011;395;48.132;11.608;2022-07-21T04:02:53;10.67;;;9.67;;
826;SDS011;395;48.132;11.608;2022-07-21T04:05:19;10.47;;;9.47;;
826;SDS011;395;48.132;11.608;2022-07-21T04:07:46;11.37;;;10.37;;
826;SDS011;395;48.132;11.608;2022-07-21T04:10:14;11.27;;;10.27;;
826;SDS011;395;48.132;11.608;2022-07-21T04:12:42;11.03;;;9.97;;
826;SDS011;395;48.132;11.608;2022-07-21T04:15:09;11.90;;;10.90;;
826;SDS011;395;48.132;11.608;2022-07-21T04:17:35;10.90;;;9.90;;
826;SDS011;395;48.132;11.608;2022-07-21T04:20:02;11.83;;;10.73;;
826;SDS011;395;48.132;11.608;2022-07-21T04:22:29;11.80;;;10.60;;
826;SDS011;395;48.132;11.608;2022-07-21T04:24:54;12.63;;;11.43;;
826;SDS011;395;48.132;11.608;2022-07-21T04:27:20;12.60;;;11.40;;
826;SDS011;395;48.132;11.608;2022-07-21T04:29:46;12.60;;;11.47;;
826;SDS011;395;48.132;11.608;2022-07-21T04:32:11;12.57;;;11.37;;
826;SDS011;395;48.132;11.608;2022-07-21T04:34:37;13.13;;;11.83;;
826;SDS011;395;48.132;11.608;2022-07-21T04:37:05;13.47;;;12.27;;
826;SDS011;395;48.132;11.608;2022-07-21T04:39:36;13.47;;;11.80;;
826;SDS011;395;48.132;11.608;2022-07-21T04:42:02;11.43;;;10.33;;
826;SDS011;395;48.132;11.608;2022-07-21T04:44:28;12.33;;;11.23;;
826;SDS011;395;48.132;11.608;2022-07-21T04:46:54;13.23;;;12.03;;
826;SDS011;395;48.132;11.608;2022-07-21T04:49:20;13.20;;;12.00;;
826;SDS011;395;48.132;11.608;2022-07-21T04:51:45;12.80;;;11.77;;
826;SDS011;395;48.132;11.608;2022-07-21T04:54:11;13.57;;;12.17;;
826;SDS011;395;48.132;11.608;2022-07-21T04:56:39;12.93;;;11.67;;
826;SDS011;395;48.132;11.608;2022-07-21T04:59:05;13.80;;;12.50;;
826;SDS011;395;48.132;11.608;2022-07-21T05:01:31;14.93;;;13.30;;
826;SDS011;395;48.132;11.608;2022-07-21T05:03:57;13.93;;;12.53;;
826;SDS011;395;48.132;11.608;2022-07-21T05:06:22;14.00;;;12.70;;
826;SDS011;395;48.132;11.608;2022-07-21T05:08:48;13.00;;;11.90;;
826;SDS011;395;48.132;11.608;2022-07-21T05:11:14;13.80;;;12.60;;
826;SDS011;395;48.132;11.608;2022-07-21T05:13:40;13.70;;;12.40;;
826;SDS011;395;48.132;11.608;2022-07-21T05:16:05;14.20;;;12.90;;
826;SDS011;395;48.132;11.608;2022-07-21T05:18:32;13.77;;;12.57;;
826;SDS011;395;48.132;11.608;2022-07-21T05:20:58;15.00;;;12.40;;
826;SDS011;395;48.132;11.608;2022-07-21T05:23:24;14.57;;;13.17;;
826;SDS011;395;48.132;11.608;2022-07-21T05:25:49;15.57;;;13.93;;
826;SDS011;395;48.132;11.608;2022-07-21T05:28:15;14.43;;;13.07;;
826;SDS011;395;48.132;11.608;2022-07-21T05:30:41;12.93;;;11.93;;
826;SDS011;395;48.132;11.608;2022-07-21T05:33:06;13.87;;;12.67;;
826;SDS011;395;48.132;11.608;2022-07-21T05:35:32;13.80;;;12.50;;
826;SDS011;395;48.132;11.608;2022-07-21T05:37:58;14.93;;;13.50;;
826;SDS011;395;48.132;11.608;2022-07-21T05:40:24;14.80;;;13.43;;
826;SDS011;395;48.132;11.608;2022-07-21T05:42:49;14.77;;;13.50;;
826;SDS011;395;48.132;11.608;2022-07-21T05:45:15;15.07;;;13.57;;
826;SDS011;395;48.132;11.608;2022-07-21T05:47:41;14.30;;;13.00;;
826;SDS011;395;48.132;11.608;2022-07-21T05:50:07;14.53;;;13.23;;
826;SDS011;395;48.132;11.608;2022-07-21T05:52:34;13.77;;;12.27;;
826;SDS011;395;48.132;11.608;2022-07-21T05:54:59;13.20;;;11.97;;
826;SDS011;395;48.132;11.608;2022-07-21T05:57:25;14.90;;;12.60;;
826;SDS011;395;48.132;11.608;2022-07-21T05:59:51;15.23;;;12.70;;
826;SDS011;395;48.132;11.608;2022-07-21T06:02:17;15.70;;;14.03;;
826;SDS011;395;48.132;11.608;2022-07-21T06:04:43;15.00;;;13.60;;
826;SDS011;395;48.132;11.608;2022-07-21T06:07:08;13.50;;;12.30;;
826;SDS011;395;48.132;11.608;2022-07-21T06:09:34;15.63;;;14.10;;
826;SDS011;395;48.132;11.608;2022-07-21T06:12:00;13.83;;;12.43;;
826;SDS011;395;48.132;11.608;2022-07-21T06:14:25;15.87;;;14.27;;
826;SDS011;395;48.132;11.608;2022-07-21T06:16:51;14.37;;;12.90;;
826;SDS011;395;48.132;11.608;2022-07-21T06:19:17;15.67;;;14.27;;
826;SDS011;395;48.132;11.608;2022-07-21T06:21:43;13.80;;;12.40;;
826;SDS011;395;48.132;11.608;2022-07-21T06:24:09;14.83;;;13.43;;
826;SDS011;395;48.132;11.608;2022-07-21T06:26:34;13.80;;;12.40;;
826;SDS011;395;48.132;11.608;2022-07-21T06:29:00;14.43;;;13.13;;
826;SDS011;395;48.132;11.608;2022-07-21T06:31:26;16.50;;;13.53;;
826;SDS011;395;48.132;11.608;2022-07-21T06:33:52;14.37;;;12.93;;
826;SDS011;395;48.132;11.608;2022-07-21T06:36:17;15.33;;;13.90;;
826;SDS011;395;48.132;11.608;2022-07-21T06:38:43;15.20;;;13.83;;
826;SDS011;395;48.132;11.608;2022-07-21T06:41:10;16.13;;;14.73;;
826;SDS011;395;48.132;11.608;2022-07-21T06:43:36;17.67;;;14.70;;
826;SDS011;395;48.132;11.608;2022-07-21T06:46:01;14.70;;;13.27;;
826;SDS011;395;48.132;11.608;2022-07-21T06:48:28;16.53;;;14.57;;
826;SDS011;395;48.132;11.608;2022-07-21T06:50:54;15.60;;;14.20;;
826;SDS011;395;48.132;11.608;2022-07-21T06:53:22;16.63;;;15.03;;
826;SDS011;395;48.132;11.608;2022-07-21T06:55:48;16.80;;;15.37;;
826;SDS011;395;48.132;11.608;2022-07-21T06:58:18;19.23;;;16.60;;
826;SDS011;395;48.132;11.608;2022-07-21T07:00:46;18.57;;;16.83;;
826;SDS011;395;48.132;11.608;2022-07-21T07:03:12;18.83;;;16.83;;
826;SDS011;395;48.132;11.608;2022-07-21T07:05:39;17.43;;;15.63;;
826;SDS011;395;48.132;11.608;2022-07-21T07:08:06;17.13;;;15.57;;
826;SDS011;395;48.132;11.608;2022-07-21T07:10:32;19.10;;;17.30;;
826;SDS011;395;48.132;11.608;2022-07-21T07:12:57;16.80;;;15.27;;
826;SDS011;395;48.132;11.608;2022-07-21T07:15:24;18.03;;;16.13;;
826;SDS011;395;48.132;11.608;2022-07-21T07:17:50;16.07;;;14.57;;
826;SDS011;395;48.132;11.608;2022-07-21T07:20:16;16.17;;;14.77;;
826;SDS011;395;48.132;11.608;2022-07-21T07:22:42;16.73;;;15.23;;
826;SDS011;395;48.132;11.608;2022-07-21T07:25:09;18.60;;;15.47;;
826;SDS011;395;48.132;11.608;2022-07-21T07:27:35;17.57;;;15.97;;
826;SDS011;395;48.132;11.608;2022-07-21T07:30:01;15.20;;;14.00;;
826;SDS011;395;48.132;11.608;2022-07-21T07:32:26;14.43;;;13.23;;
826;SDS011;395;48.132;11.608;2022-07-21T07:34:52;15.10;;;13.00;;
826;SDS011;395;48.132;11.608;2022-07-21T07:37:18;14.90;;;13.60;;
826;SDS011;395;48.132;11.608;2022-07-21T07:39:43;19.83;;;15.47;;
826;SDS011;395;48.132;11.608;2022-07-21T07:42:09;17.10;;;15.43;;
826;SDS011;395;48.132;11.608;2022-07-21T07:44:35;15.57;;;13.93;;
826;SDS011;395;48.132;11.608;2022-07-21T07:47:01;13.40;;;12.30;;
826;SDS011;395;48.132;11.608;2022-07-21T07:49:30;15.23;;;13.80;;
826;SDS011;395;48.132;11.608;2022-07-21T07:51:56;16.70;;;15.07;;
826;SDS011;395;48.132;11.608;2022-07-21T07:54:23;14.67;;;13.27;;
826;SDS011;395;48.132;11.608;2022-07-21T07:56:49;15.50;;;14.20;;
826;SDS011;395;48.132;11.608;2022-07-21T07:59:15;15.40;;;14.10;;
826;SDS011;395;48.132;11.608;2022-07-21T08:01:40;15.50;;;14.20;;
826;SDS011;395;48.132;11.608;2022-07-21T08:04:06;16.33;;;14.73;;
826;SDS011;395;48.132;11.608;2022-07-21T08:06:32;15.40;;;14.00;;
826;SDS011;395;48.132;11.608;2022-07-21T08:08:58;15.20;;;13.90;;
826;SDS011;395;48.132;11.608;2022-07-21T08:11:24;14.37;;;13.10;;
826;SDS011;395;48.132;11.608;2022-07-21T08:13:50;13.60;;;12.20;;
826;SDS011;395;48.132;11.608;2022-07-21T08:16:16;14.30;;;13.00;;
826;SDS011;395;48.132;11.608;2022-07-21T08:18:42;14.37;;;13.03;;
826;SDS011;395;48.132;11.608;2022-07-21T08:21:09;15.20;;;13.80;;
826;SDS011;395;48.132;11.608;2022-07-21T08:23:35;14.93;;;13.73;;
826;SDS011;395;48.132;11.608;2022-07-21T08:26:01;16.03;;;14.53;;
826;SDS011;395;48.132;11.608;2022-07-21T08:28:27;15.00;;;13.53;;
826;SDS011;395;48.132;11.608;2022-07-21T08:30:53;16.13;;;14.53;;
826;SDS011;395;48.132;11.608;2022-07-21T08:33:19;16.50;;;14.90;;
826;SDS011;395;48.132;11.608;2022-07-21T08:35:45;15.63;;;13.27;;
826;SDS011;395;48.132;11.608;2022-07-21T08:38:11;13.90;;;12.60;;
826;SDS011;395;48.132;11.608;2022-07-21T08:40:38;16.07;;;14.47;;
826;SDS011;395;48.132;11.608;2022-07-21T08:43:06;15.87;;;14.43;;
826;SDS011;395;48.132;11.608;2022-07-21T08:45:34;15.80;;;14.50;;
826;SDS011;395;48.132;11.608;2022-07-21T08:48:00;15.83;;;14.20;;
826;SDS011;395;48.132;11.608;2022-07-21T08:50:27;16.73;;;15.33;;
826;SDS011;395;48.132;11.608;2022-07-21T08:52:55;16.17;;;14.67;;
826;SDS011;395;48.132;11.608;2022-07-21T08:55:20;17.50;;;15.90;;
826;SDS011;395;48.132;11.608;2022-07-21T08:57:46;16.57;;;15.17;;
826;SDS011;395;48.132;11.608;2022-07-21T09:00:12;16.60;;;14.77;;
826;SDS011;395;48.132;11.608;2022-07-21T09:02:39;14.80;;;13.37;;
826;SDS011;395;48.132;11.608;2022-07-21T09:05:05;15.90;;;14.60;;
826;SDS011;395;48.132;11.608;2022-07-21T09:10:27;16.30;;;14.80;;
826;SDS011;395;48.132;11.608;2022-07-21T09:12:55;14.40;;;13.07;;
826;SDS011;395;48.132;11.608;2022-07-21T09:15:24;15.97;;;14.53;;
826;SDS011;395;48.132;11.608;2022-07-21T09:18:07;17.50;;;16.00;;
826;SDS011;395;48.132;11.608;2022-07-21T09:20:49;15.93;;;14.50;;
826;SDS011;395;48.132;11.608;2022-07-21T09:23:18;14.93;;;13.43;;
826;SDS011;395;48.132;11.608;2022-07-21T09:25:49;16.20;;;14.80;;
826;SDS011;395;48.132;11.608;2022-07-21T09:38:36;15.80;;;14.20;;
826;SDS011;395;48.132;11.608;2022-07-21T09:41:13;17.10;;;15.30;;
826;SDS011;395;48.132;11.608;2022-07-21T09:43:48;17.00;;;15.53;;
826;SDS011;395;48.132;11.608;2022-07-21T09:46:23;17.13;;;15.53;;
826;SDS011;395;48.132;11.608;2022-07-21T09:48:51;15.40;;;14.00;;
826;SDS011;395;48.132;11.608;2022-07-21T09:51:22;16.23;;;14.20;;
826;SDS011;395;48.132;11.608;2022-07-21T09:53:49;15.77;;;14.23;;
826;SDS011;395;48.132;11.608;2022-07-21T09:56:17;17.53;;;15.17;;
826;SDS011;395;48.132;11.608;2022-07-21T09:58:45;20.70;;;16.70;;
826;SDS011;395;48.132;11.608;2022-07-21T10:01:12;17.07;;;15.30;;
826;SDS011;395;48.132;11.608;2022-07-21T10:03:38;15.27;;;13.87;;
826;SDS011;395;48.132;11.608;2022-07-21T10:06:04;15.10;;;13.73;;
826;SDS011;395;48.132;11.608;2022-07-21T10:08:31;15.77;;;14.20;;
826;SDS011;395;48.132;11.608;2022-07-21T10:10:59;18.40;;;16.60;;
826;SDS011;395;48.132;11.608;2022-07-21T10:13:25;16.83;;;15.40;;
826;SDS011;395;48.132;11.608;2022-07-21T10:15:52;15.50;;;14.10;;
826;SDS011;395;48.132;11.608;2022-07-21T10:18:19;17.33;;;15.53;;
826;SDS011;395;48.132;11.608;2022-07-21T10:20:50;18.27;;;16.37;;
826;SDS011;395;48.132;11.608;2022-07-21T10:23:22;17.00;;;15.50;;
826;SDS011;395;48.132;11.608;2022-07-21T10:26:04;15.57;;;14.07;;
826;SDS011;395;48.132;11.608;2022-07-21T10:28:31;16.40;;;14.87;;
826;SDS011;395;48.132;11.608;2022-07-21T10:30:58;16.57;;;15.07;;
826;SDS011;395;48.132;11.608;2022-07-21T10:36:08;18.30;;;16.47;;
826;SDS011;395;48.132;11.608;2022-07-21T10:38:35;16.90;;;15.30;;
826;SDS011;395;48.132;11.608;2022-07-21T10:41:03;16.83;;;15.13;;
826;SDS011;395;48.132;11.608;2022-07-21T10:45:56;15.60;;;14.10;;
826;SDS011;395;48.132;11.608;2022-07-21T10:51:09;16.90;;;15.20;;
826;SDS011;395;48.132;11.608;2022-07-21T10:53:36;16.37;;;14.80;;
826;SDS011;395;48.132;11.608;2022-07-21T10:56:03;15.80;;;14.20;;
826;SDS011;395;48.132;11.608;2022-07-21T10:58:30;15.13;;;13.83;;
826;SDS011;395;48.132;11.608;2022-07-21T11:03:31;16.93;;;15.33;;
826;SDS011;395;48.132;11.608;2022-07-21T11:11:15;15.17;;;13.87;;
826;SDS011;395;48.132;11.608;2022-07-21T11:14:02;15.33;;;13.97;;
826;SDS011;395;48.132;11.608;2022-07-21T11:22:22;13.33;;;11.97;;
826;SDS011;395;48.132;11.608;2022-07-21T11:24:59;14.23;;;12.93;;
826;SDS011;395;48.132;11.608;2022-07-21T11:27:29;15.30;;;14.00;;
826;SDS011;395;48.132;11.608;2022-07-21T11:29:58;17.03;;;15.53;;
826;SDS011;395;48.132;11.608;2022-07-21T11:32:26;13.73;;;12.53;;
826;SDS011;395;48.132;11.608;2022-07-21T11:37:28;15.53;;;14.13;;
826;SDS011;395;48.132;11.608;2022-07-21T11:39:54;17.00;;;15.40;;
826;SDS011;395;48.132;11.608;2022-07-21T11:42:20;15.40;;;14.00;;
826;SDS011;395;48.132;11.608;2022-07-21T11:44:46;15.07;;;13.67;;
826;SDS011;395;48.132;11.608;2022-07-21T11:47:13;14.63;;;13.33;;
826;SDS011;395;48.132;11.608;2022-07-21T11:49:39;17.23;;;15.60;;
826;SDS011;395;48.132;11.608;2022-07-21T11:52:07;15.20;;;13.90;;
826;SDS011;395;48.132;11.608;2022-07-21T11:54:42;16.87;;;15.20;;
826;SDS011;395;48.132;11.608;2022-07-21T11:57:12;16.93;;;15.20;;
826;SDS011;395;48.132;11.608;2022-07-21T11:59:40;16.83;;;15.23;;
826;SDS011;395;48.132;11.608;2022-07-21T12:02:08;17.70;;;16.10;;
826;SDS011;395;48.132;11.608;2022-07-21T12:04:49;16.80;;;15.27;;
826;SDS011;395;48.132;11.608;2022-07-21T12:07:21;16.20;;;14.53;;
826;SDS011;395;48.132;11.608;2022-07-21T12:10:06;14.83;;;13.53;;
826;SDS011;395;48.132;11.608;2022-07-21T12:12:38;18.47;;;16.77;;
826;SDS011;395;48.132;11.608;2022-07-21T12:15:15;16.47;;;14.97;;
826;SDS011;395;48.132;11.608;2022-07-21T12:17:52;16.80;;;15.20;;
826;SDS011;395;48.132;11.608;2022-07-21T12:20:24;15.83;;;14.23;;
826;SDS011;395;48.132;11.608;2022-07-21T12:22:50;15.50;;;14.20;;
826;SDS011;395;48.132;11.608;2022-07-21T12:25:16;14.33;;;13.03;;
826;SDS011;395;48.132;11.608;2022-07-21T12:27:54;14.93;;;13.53;;
826;SDS011;395;48.132;11.608;2022-07-21T12:33:04;13.10;;;11.80;;
826;SDS011;395;48.132;11.608;2022-07-21T12:35:41;14.77;;;13.37;;
826;SDS011;395;48.132;11.608;2022-07-21T12:38:12;14.87;;;13.47;;
826;SDS011;395;48.132;11.608;2022-07-21T12:40:42;15.20;;;13.80;;
826;SDS011;395;48.132;11.608;2022-07-21T12:43:13;17.37;;;15.77;;
826;SDS011;395;48.132;11.608;2022-07-21T12:45:47;15.17;;;13.80;;
826;SDS011;395;48.132;11.608;2022-07-21T12:48:19;17.60;;;16.03;;
826;SDS011;395;48.132;11.608;2022-07-21T12:53:49;15.80;;;14.23;;
826;SDS011;395;48.132;11.608;2022-07-21T12:56:19;18.40;;;16.60;;
826;SDS011;395;48.132;11.608;2022-07-21T12:58:46;18.87;;;17.07;;
826;SDS011;395;48.132;11.608;2022-07-21T13:01:13;17.60;;;15.80;;
826;SDS011;395;48.132;11.608;2022-07-21T13:03:44;16.03;;;14.47;;
826;SDS011;395;48.132;11.608;2022-07-21T13:06:10;19.30;;;17.50;;
826;SDS011;395;48.132;11.608;2022-07-21T13:08:38;15.17;;;13.87;;
826;SDS011;395;48.132;11.608;2022-07-21T13:11:05;14.97;;;13.57;;
826;SDS011;395;48.132;11.608;2022-07-21T13:13:31;17.10;;;15.50;;
826;SDS011;395;48.132;11.608;2022-07-21T13:15:57;15.83;;;14.53;;
826;SDS011;395;48.132;11.608;2022-07-21T13:18:24;15.73;;;14.23;;
826;SDS011;395;48.132;11.608;2022-07-21T13:20:50;14.03;;;12.93;;
826;SDS011;395;48.132;11.608;2022-07-21T13:23:17;17.70;;;15.90;;
826;SDS011;395;48.132;11.608;2022-07-21T13:25:43;16.20;;;14.80;;
826;SDS011;395;48.132;11.608;2022-07-21T13:28:08;17.00;;;15.47;;
826;SDS011;395;48.132;11.608;2022-07-21T13:30:34;15.00;;;13.60;;
826;SDS011;395;48.132;11.608;2022-07-21T13:33:00;14.87;;;13.57;;
826;SDS011;395;48.132;11.608;2022-07-21T13:35:26;13.70;;;12.50;;
826;SDS011;395;48.132;11.608;2022-07-21T13:37:52;16.40;;;14.80;;
826;SDS011;395;48.132;11.608;2022-07-21T13:40:18;16.17;;;14.77;;
826;SDS011;395;48.132;11.608;2022-07-21T13:42:44;16.60;;;15.10;;
826;SDS011;395;48.132;11.608;2022-07-21T13:45:10;16.17;;;14.57;;
826;SDS011;395;48.132;11.608;2022-07-21T13:47:38;17.83;;;14.73;;
826;SDS011;395;48.132;11.608;2022-07-21T13:50:04;18.10;;;16.40;;
826;SDS011;395;48.132;11.608;2022-07-21T13:52:31;14.97;;;13.33;;
826;SDS011;395;48.132;11.608;2022-07-21T13:54:57;14.73;;;13.23;;
826;SDS011;395;48.132;11.608;2022-07-21T13:57:23;15.23;;;13.87;;
826;SDS011;395;48.132;11.608;2022-07-21T13:59:48;14.77;;;13.47;;
826;SDS011;395;48.132;11.608;2022-07-21T14:02:14;13.80;;;12.70;;
826;SDS011;395;48.132;11.608;2022-07-21T14:04:40;13.90;;;12.70;;
826;SDS011;395;48.132;11.608;2022-07-21T14:07:05;15.00;;;13.60;;
826;SDS011;395;48.132;11.608;2022-07-21T14:09:31;16.20;;;14.70;;
826;SDS011;395;48.132;11.608;2022-07-21T14:11:57;15.57;;;13.97;;
826;SDS011;395;48.132;11.608;2022-07-21T14:14:23;15.90;;;14.37;;
826;SDS011;395;48.132;11.608;2022-07-21T14:16:51;13.57;;;12.37;;
826;SDS011;395;48.132;11.608;2022-07-21T14:19:18;13.93;;;12.73;;
826;SDS011;395;48.132;11.608;2022-07-21T14:21:44;14.00;;;12.70;;
826;SDS011;395;48.132;11.608;2022-07-21T14:24:10;16.70;;;14.70;;
826;SDS011;395;48.132;11.608;2022-07-21T14:26:55;14.40;;;13.10;;
826;SDS011;395;48.132;11.608;2022-07-21T14:29:20;14.73;;;13.37;;
826;SDS011;395;48.132;11.608;2022-07-21T14:31:46;15.00;;;13.50;;
826;SDS011;395;48.132;11.608;2022-07-21T14:34:12;13.40;;;12.30;;
826;SDS011;395;48.132;11.608;2022-07-21T14:36:37;13.97;;;12.60;;
826;SDS011;395;48.132;11.608;2022-07-21T14:39:03;13.60;;;12.33;;
826;SDS011;395;48.132;11.608;2022-07-21T14:41:29;13.97;;;12.73;;
826;SDS011;395;48.132;11.608;2022-07-21T14:43:54;14.70;;;13.40;;
826;SDS011;395;48.132;11.608;2022-07-21T14:46:20;12.87;;;11.70;;
826;SDS011;395;48.132;11.608;2022-07-21T14:48:46;13.60;;;12.40;;
826;SDS011;395;48.132;11.608;2022-07-21T14:51:12;13.27;;;12.00;;
826;SDS011;395;48.132;11.608;2022-07-21T14:53:37;14.63;;;13.23;;
826;SDS011;395;48.132;11.608;2022-07-21T14:56:03;14.83;;;13.50;;
826;SDS011;395;48.132;11.608;2022-07-21T14:58:29;13.47;;;12.27;;
826;SDS011;395;48.132;11.608;2022-07-21T15:00:55;12.00;;;11.07;;
826;SDS011;395;48.132;11.608;2022-07-21T15:03:20;13.33;;;12.23;;
826;SDS011;395;48.132;11.608;2022-07-21T15:05:46;14.47;;;13.17;;
826;SDS011;395;48.132;11.608;2022-07-21T15:08:12;12.80;;;11.57;;
826;SDS011;395;48.132;11.608;2022-07-21T15:10:39;12.90;;;11.63;;
826;SDS011;395;48.132;11.608;2022-07-21T15:13:06;13.33;;;11.93;;
826;SDS011;395;48.132;11.608;2022-07-21T15:15:31;11.47;;;10.40;;
826;SDS011;395;48.132;11.608;2022-07-21T15:18:00;11.93;;;10.83;;
826;SDS011;395;48.132;11.608;2022-07-21T15:20:25;12.40;;;11.40;;
826;SDS011;395;48.132;11.608;2022-07-21T15:22:51;12.60;;;11.33;;
826;SDS011;395;48.132;11.608;2022-07-21T15:25:17;11.87;;;10.67;;
826;SDS011;395;48.132;11.608;2022-07-21T15:27:43;11.70;;;10.80;;
826;SDS011;395;48.132;11.608;2022-07-21T15:30:09;12.03;;;11.07;;
826;SDS011;395;48.132;11.608;2022-07-21T15:32:36;11.67;;;10.77;;
826;SDS011;395;48.132;11.608;2022-07-21T15:35:02;11.50;;;10.40;;
826;SDS011;395;48.132;11.608;2022-07-21T15:37:28;12.73;;;11.63;;
826;SDS011;395;48.132;11.608;2022-07-21T15:39:54;11.17;;;10.27;;
826;SDS011;395;48.132;11.608;2022-07-21T15:42:20;12.93;;;11.77;;
826;SDS011;395;48.132;11.608;2022-07-21T15:44:45;12.00;;;10.97;;
826;SDS011;395;48.132;11.608;2022-07-21T15:47:11;12.53;;;11.43;;
826;SDS011;395;48.132;11.608;2022-07-21T15:49:37;13.90;;;11.57;;
826;SDS011;395;48.132;11.608;2022-07-21T15:52:03;12.47;;;11.47;;